Main page
Satellite images 10-day forecastsClimateMarine weather Cyclones Lightning AirportsFAQ Newsletter About
Weather : Europe Africa North America South America Asia Australia-Oceania Others
Languages Contact

Gloucester, England

Gloucestershire Airport

latitude: 51-54N, longitude: 002-10W, elevation: 29 m


METAR: EGBJ 191820Z 35002KT 9999 FEW035 11/05 Q1023
TAF: EGBJ 191401Z 1915/1919 04008KT 9999 BKN040

Time: 22:00 (21:00 UTC)

Current weather observation

The report was made 2 hours and 40 minutes ago, at 18:20 UTC
Wind 2 kt from the North
Temperature 11°C
Humidity 66%
Pressure 1023 hPa
Visibility 10 km or more
Few clouds at a height of 3500 ft

Change units

Forecast

The report was made 6 hours and 59 minutes ago, at 14:01 UTC
Forecast valid from 19 at 15 UTC to 19 at 19 UTC
Wind 8 kt from the Northeast
Visibility 10 km or more
Broken clouds at a height of 4000 ft
The information on this site is subject to a disclaimer
Weather : Europe Africa North America South America Asia Australia-Oceania Others
Satellite images 10-day forecastsClimateMarine weather Cyclones Lightning AirportsFAQ Languages Contact Newsletter About